Time;durP1;ratioP1;P1;durP2;ratioP2;P2;SDS_P1;SDS_P2;PMS_P1;PMS_P2;Temp;Humidity;BMP_temperature;BMP_pressure;BME280_temperature;BME280_humidity;BME280_pressure;Samples;Min_cycle;Max_cycle;Signal;HPM_P1;HPM_P2
2021/10/17 00:00:06;;;;;;;78.72;41.88;;;;;;;10.08;68.70;100774.88;4941267;28;101356;-84
2021/10/17 00:02:39;;;;;;;71.22;36.90;;;;;;;10.05;69.04;100775.81;4944021;28;97180;-83
2021/10/17 00:05:08;;;;;;;63.30;34.38;;;;;;;10.09;68.59;100785.31;4955914;28;97065;-84
2021/10/17 00:07:33;;;;;;;64.78;34.72;;;;;;;10.09;68.70;100772.19;4949385;28;98129;-84
2021/10/17 00:09:59;;;;;;;68.78;34.17;;;;;;;10.18;68.02;100784.22;4944557;28;97916;-84
2021/10/17 00:12:25;;;;;;;60.63;33.88;;;;;;;10.26;67.64;100786.66;4970689;28;96867;-83
2021/10/17 00:14:51;;;;;;;55.75;31.40;;;;;;;10.18;67.87;100779.88;4967121;28;97200;-84
2021/10/17 00:17:17;;;;;;;59.60;30.77;;;;;;;10.17;67.58;100785.13;4975535;28;101224;-84
2021/10/17 00:19:42;;;;;;;54.08;30.35;;;;;;;10.08;67.37;100777.50;4975845;28;101507;-85
2021/10/17 00:22:08;;;;;;;71.18;36.63;;;;;;;10.11;67.33;100773.03;4961277;28;96728;-83
2021/10/17 00:24:34;;;;;;;68.35;38.08;;;;;;;10.08;67.71;100780.97;4972919;28;97052;-84
2021/10/17 00:26:59;;;;;;;64.28;35.70;;;;;;;10.11;67.39;100780.03;4944390;28;101348;-84
2021/10/17 00:29:25;;;;;;;61.75;35.08;;;;;;;10.10;67.83;100780.97;4947088;28;101529;-84
2021/10/17 00:31:51;;;;;;;63.95;33.80;;;;;;;10.10;67.53;100775.72;4955168;28;96686;-85
2021/10/17 00:34:17;;;;;;;60.20;34.88;;;;;;;10.06;67.94;100771.41;4961666;28;96812;-83
2021/10/17 00:36:42;;;;;;;57.92;34.20;;;;;;;10.09;67.74;100780.06;4957338;28;101203;-85
2021/10/17 00:39:08;;;;;;;54.40;30.30;;;;;;;10.03;67.70;100779.38;4943893;28;101348;-83
2021/10/17 00:41:34;;;;;;;56.53;30.00;;;;;;;10.03;67.72;100767.09;4922368;28;97802;-84
2021/10/17 00:44:00;;;;;;;48.05;28.23;;;;;;;10.07;67.59;100774.03;4952670;28;97058;-83
2021/10/17 00:46:26;;;;;;;48.42;27.08;;;;;;;10.02;67.55;100770.63;4956980;28;101831;-85
2021/10/17 00:48:51;;;;;;;36.70;24.05;;;;;;;10.25;65.90;100779.72;4951916;28;101160;-84
2021/10/17 00:51:17;;;;;;;38.13;24.75;;;;;;;10.19;66.39;100771.09;4933709;28;97356;-84
2021/10/17 00:53:44;;;;;;;37.38;23.48;;;;;;;10.07;67.06;100771.41;4943801;28;96811;-85
2021/10/17 00:56:10;;;;;;;39.38;23.40;;;;;;;10.03;67.04;100767.09;4977676;28;98599;-85
2021/10/17 00:58:36;;;;;;;46.47;25.50;;;;;;;10.09;67.37;100777.44;4947815;28;101034;-84
2021/10/17 01:01:02;;;;;;;43.67;28.17;;;;;;;10.04;67.10;100773.25;4954000;28;97239;-84
2021/10/17 01:03:28;;;;;;;41.17;26.20;;;;;;;10.01;67.62;100770.69;4944084;28;96889;-84
2021/10/17 01:05:54;;;;;;;43.97;25.20;;;;;;;10.08;67.05;100767.88;4971815;28;101084;-84
2021/10/17 01:08:21;;;;;;;46.13;26.35;;;;;;;10.02;67.35;100767.16;4942622;28;101723;-84
2021/10/17 01:10:47;;;;;;;42.90;27.13;;;;;;;10.03;67.77;100776.75;4956650;28;97182;-87
2021/10/17 01:13:24;;;;;;;41.17;25.38;;;;;;;10.00;68.04;100758.47;4941134;28;96647;-84
2021/10/17 01:15:52;;;;;;;40.47;25.42;;;;;;;9.93;67.56;100769.09;4938869;28;101334;-84
2021/10/17 01:18:18;;;;;;;47.60;27.38;;;;;;;9.90;68.05;100760.47;4942173;28;102104;-84
2021/10/17 01:20:44;;;;;;;41.45;25.27;;;;;;;9.87;68.38;100748.28;4937692;28;96830;-85
2021/10/17 01:23:10;;;;;;;39.97;24.77;;;;;;;9.94;67.66;100760.31;4951995;28;96615;-83
2021/10/17 01:25:36;;;;;;;41.05;24.80;;;;;;;9.95;67.85;100753.34;4954969;28;101902;-85
2021/10/17 01:28:02;;;;;;;43.78;25.80;;;;;;;9.91;68.43;100752.53;4955109;28;100868;-83
2021/10/17 01:30:31;;;;;;;40.88;23.55;;;;;;;9.88;68.51;100741.25;4971027;28;96633;-83
2021/10/17 01:32:57;;;;;;;44.80;25.80;;;;;;;9.95;67.86;100737.63;4950100;28;97469;-85
2021/10/17 01:35:22;;;;;;;42.58;24.63;;;;;;;9.99;67.73;100744.50;4986639;28;101342;-84
2021/10/17 01:37:48;;;;;;;39.88;24.48;;;;;;;9.99;67.97;100741.88;4958936;28;101017;-86
2021/10/17 01:40:14;;;;;;;38.13;24.20;;;;;;;9.84;68.36;100726.53;4958661;28;96645;-84
2021/10/17 01:42:39;;;;;;;34.20;24.27;;;;;;;9.93;68.00;100734.16;4961368;28;96920;-84
2021/10/17 01:45:06;;;;;;;41.30;24.38;;;;;;;9.95;68.05;100732.38;4936908;28;101776;-84
2021/10/17 01:47:32;;;;;;;38.83;23.40;;;;;;;9.92;67.94;100735.94;4949730;28;101746;-85
2021/10/17 01:49:58;;;;;;;37.58;23.55;;;;;;;9.94;68.30;100738.50;4974165;28;97320;-84
2021/10/17 01:52:24;;;;;;;39.30;23.95;;;;;;;9.94;67.80;100731.47;4945179;28;96991;-84
2021/10/17 01:54:52;;;;;;;34.88;22.75;;;;;;;9.92;67.01;100728.06;4921520;28;101116;-85
2021/10/17 01:57:21;;;;;;;37.92;23.08;;;;;;;10.05;66.62;100725.97;4934832;28;101786;-84
2021/10/17 01:59:46;;;;;;;38.58;23.77;;;;;;;9.86;67.95;100717.72;4943036;28;96843;-87
2021/10/17 02:02:21;;;;;;;36.85;22.15;;;;;;;9.83;68.09;100733.53;4955839;28;96935;-84
2021/10/17 02:04:47;;;;;;;35.63;23.33;;;;;;;9.78;67.66;100718.81;4938077;28;100479;-85
2021/10/17 02:07:13;;;;;;;34.25;22.70;;;;;;;9.85;68.18;100726.47;4947363;28;101477;-84
2021/10/17 02:09:39;;;;;;;34.42;22.58;;;;;;;9.80;67.91;100717.84;4929025;28;97177;-85
2021/10/17 02:12:06;;;;;;;35.72;22.92;;;;;;;9.80;68.16;100722.22;4986047;28;97369;-84
2021/10/17 02:14:32;;;;;;;36.22;22.38;;;;;;;9.81;68.41;100723.97;4954691;28;101840;-84
2021/10/17 02:17:00;;;;;;;36.70;23.30;;;;;;;9.82;68.58;100720.44;4956460;28;101632;-84
2021/10/17 02:19:25;;;;;;;36.25;22.48;;;;;;;9.78;68.24;100724.91;4961626;28;96799;-83
2021/10/17 02:21:51;;;;;;;36.25;24.20;;;;;;;9.75;68.62;100715.34;4956256;28;96628;-85
2021/10/17 02:24:16;;;;;;;37.95;22.50;;;;;;;9.95;67.62;100721.88;4943755;28;101516;-84
2021/10/17 02:26:44;;;;;;;37.20;22.17;;;;;;;9.92;66.90;100719.34;4922971;28;101605;-83
2021/10/17 02:29:14;;;;;;;30.08;20.70;;;;;;;9.84;67.24;100722.13;4946730;28;96594;-84
2021/10/17 02:31:50;;;;;;;38.47;22.05;;;;;;;9.80;67.32;100715.22;4953357;28;97076;-85
2021/10/17 02:34:17;;;;;;;34.72;21.42;;;;;;;9.79;67.75;100712.66;4979096;28;99689;-85
2021/10/17 02:36:44;;;;;;;36.63;22.33;;;;;;;9.81;67.83;100710.88;4970701;28;97893;-84
2021/10/17 02:39:09;;;;;;;34.35;22.25;;;;;;;9.94;66.12;100700.00;4960633;28;96868;-85
2021/10/17 02:41:35;;;;;;;31.25;21.00;;;;;;;9.78;67.05;100690.81;4955914;28;97045;-84
2021/10/17 02:44:02;;;;;;;29.77;20.95;;;;;;;9.77;67.34;100702.19;4944445;28;101508;-85
2021/10/17 02:46:28;;;;;;;30.23;20.17;;;;;;;9.83;67.21;100709.03;4956515;28;101244;-84
2021/10/17 02:48:53;;;;;;;31.45;21.80;;;;;;;9.98;65.89;100706.06;4956540;28;96750;-85
2021/10/17 02:51:19;;;;;;;35.55;22.20;;;;;;;10.03;65.50;100703.31;4954152;28;96994;-84
2021/10/17 02:53:45;;;;;;;33.83;20.20;;;;;;;9.84;65.75;100705.53;4947338;28;102067;-84
2021/10/17 02:56:11;;;;;;;38.33;22.48;;;;;;;9.97;65.20;100699.06;4947243;28;101359;-84
2021/10/17 02:58:37;;;;;;;37.10;21.83;;;;;;;9.77;66.31;100699.56;4968961;28;96997;-84
2021/10/17 03:01:02;;;;;;;34.83;21.48;;;;;;;9.67;67.25;100705.94;4943382;28;97120;-85
2021/10/17 03:03:28;;;;;;;33.42;21.13;;;;;;;9.70;67.25;100696.25;4952896;28;100574;-83
2021/10/17 03:05:54;;;;;;;40.10;23.05;;;;;;;9.79;67.02;100708.28;4968328;28;100858;-85
2021/10/17 03:08:19;;;;;;;33.95;20.15;;;;;;;9.82;66.70;100708.19;4957203;28;96928;-84
2021/10/17 03:10:45;;;;;;;32.63;21.30;;;;;;;9.65;67.30;100699.88;4948248;28;97258;-83
2021/10/17 03:13:11;;;;;;;31.02;19.73;;;;;;;9.84;66.92;100708.16;4947670;28;101440;-84
2021/10/17 03:15:36;;;;;;;37.22;22.45;;;;;;;9.73;66.52;100690.06;4963439;28;101356;-84
2021/10/17 03:18:04;;;;;;;39.03;21.52;;;;;;;9.82;66.32;100704.72;4945514;28;96989;-84
2021/10/17 03:20:29;;;;;;;31.83;22.55;;;;;;;9.78;66.94;100709.19;4952541;28;97072;-84
2021/10/17 03:22:55;;;;;;;35.35;22.30;;;;;;;9.81;66.88;100706.47;4947996;28;101573;-85
2021/10/17 03:25:20;;;;;;;34.30;22.40;;;;;;;9.83;67.21;100715.19;4972046;28;100810;-84
2021/10/17 03:27:48;;;;;;;29.88;20.65;;;;;;;9.80;67.32;100704.72;4934528;28;96762;-85
2021/10/17 03:30:22;;;;;;;37.78;23.83;;;;;;;10.06;66.10;100714.56;4968670;28;99496;-82
2021/10/17 03:32:48;;;;;;;31.38;21.83;;;;;;;9.81;67.20;100709.09;4984411;28;98521;-84
2021/10/17 03:35:13;;;;;;;33.72;22.75;;;;;;;9.75;66.95;100691.75;4950260;28;101411;-82
2021/10/17 03:37:39;;;;;;;40.00;22.42;;;;;;;9.96;66.65;100707.84;4970661;28;96848;-83
2021/10/17 03:40:06;;;;;;;34.33;22.17;;;;;;;9.80;67.08;100714.38;4956487;28;96932;-83
2021/10/17 03:42:34;;;;;;;41.45;24.92;;;;;;;9.74;67.27;100718.00;4960076;28;101895;-84
2021/10/17 03:45:00;;;;;;;36.67;21.80;;;;;;;9.64;67.47;100708.66;4954609;28;101542;-85
2021/10/17 03:47:26;;;;;;;33.70;22.35;;;;;;;9.70;67.36;100714.59;4939781;28;96714;-84
2021/10/17 03:49:55;;;;;;;37.70;23.60;;;;;;;9.93;66.44;100700.91;4953723;28;96801;-85
2021/10/17 03:52:26;;;;;;;34.78;23.27;;;;;;;9.92;66.89;100704.44;4939219;28;100938;-84
2021/10/17 03:54:51;;;;;;;38.90;23.70;;;;;;;9.83;66.75;100703.81;4941744;28;101767;-88
2021/10/17 03:57:17;;;;;;;37.10;24.50;;;;;;;9.79;67.19;100704.78;4951391;28;97364;-84
2021/10/17 03:59:44;;;;;;;39.25;24.40;;;;;;;9.64;67.41;100698.16;4961274;28;96951;-84
2021/10/17 04:02:10;;;;;;;36.78;23.90;;;;;;;9.74;66.84;100703.16;4965729;28;102542;-81
2021/10/17 04:04:35;;;;;;;40.92;23.90;;;;;;;9.71;66.86;100705.81;4932438;28;100465;-81
2021/10/17 04:07:02;;;;;;;33.63;23.05;;;;;;;9.49;67.62;100694.16;4984848;28;97235;-82
2021/10/17 04:09:34;;;;;;;35.72;23.33;;;;;;;9.55;67.86;100704.50;4964875;28;96792;-82
2021/10/17 04:11:59;;;;;;;44.13;23.55;;;;;;;9.46;67.61;100700.31;4963505;28;101310;-82
2021/10/17 04:14:27;;;;;;;38.30;22.73;;;;;;;9.50;67.82;100701.97;4949214;28;101360;-82
2021/10/17 04:16:53;;;;;;;35.13;22.88;;;;;;;9.47;68.16;100704.66;4991644;28;96742;-81
2021/10/17 04:19:19;;;;;;;40.20;22.67;;;;;;;9.59;67.59;100700.88;4967902;28;96811;-83
2021/10/17 04:21:44;;;;;;;40.47;24.05;;;;;;;9.76;66.43;100705.72;4941207;28;101712;-83
2021/10/17 04:24:10;;;;;;;34.08;21.70;;;;;;;9.53;67.42;100693.16;4938706;28;100423;-82
2021/10/17 04:26:37;;;;;;;33.90;22.38;;;;;;;9.86;66.55;100704.63;4941486;28;96738;-82
2021/10/17 04:29:04;;;;;;;38.58;22.70;;;;;;;9.85;66.22;100696.75;4964566;28;97234;-83
2021/10/17 04:31:29;;;;;;;33.80;22.30;;;;;;;9.75;66.51;100697.00;4950085;28;101650;-83
2021/10/17 04:33:55;;;;;;;34.90;22.35;;;;;;;9.80;66.49;100696.00;4976838;28;101522;-84
2021/10/17 04:36:21;;;;;;;34.15;22.50;;;;;;;9.52;67.14;100678.34;4952031;28;97841;-83
2021/10/17 04:38:46;;;;;;;34.10;21.50;;;;;;;9.58;66.92;100691.31;4948609;28;97134;-86
2021/10/17 04:41:13;;;;;;;39.83;23.33;;;;;;;9.48;66.91;100690.69;4984197;28;98370;-83
2021/10/17 04:43:39;;;;;;;35.75;21.33;;;;;;;9.62;66.73;100689.47;4972665;28;98135;-83
2021/10/17 04:46:05;;;;;;;35.25;22.70;;;;;;;9.74;66.15;100689.16;4943174;28;97019;-84
2021/10/17 04:48:30;;;;;;;34.80;22.15;;;;;;;9.62;66.34;100690.31;4973819;28;97075;-83
2021/10/17 04:50:56;;;;;;;38.78;24.25;;;;;;;9.57;66.79;100683.47;4952356;28;101178;-83
2021/10/17 04:53:21;;;;;;;36.33;23.30;;;;;;;9.59;66.81;100687.78;4950893;28;101395;-83
2021/10/17 04:55:47;;;;;;;33.08;21.40;;;;;;;9.56;66.50;100684.38;4978929;28;97196;-84
2021/10/17 04:58:15;;;;;;;34.53;22.42;;;;;;;9.47;66.93;100680.22;4954312;28;96811;-83
2021/10/17 05:00:41;;;;;;;37.55;22.25;;;;;;;9.43;67.24;100691.69;4974613;28;102962;-83
2021/10/17 05:03:07;;;;;;;31.15;21.02;;;;;;;9.44;67.44;100688.16;4947145;28;102808;-84
2021/10/17 05:05:33;;;;;;;37.15;22.10;;;;;;;9.57;66.93;100686.97;4966960;28;96803;-83
2021/10/17 05:08:00;;;;;;;32.60;21.88;;;;;;;9.43;67.25;100689.91;4955172;28;96753;-84
2021/10/17 05:10:27;;;;;;;32.45;21.55;;;;;;;9.44;66.71;100681.16;4980060;28;101373;-83
2021/10/17 05:12:55;;;;;;;36.03;21.85;;;;;;;9.39;66.80;100693.47;4948996;28;101747;-84
2021/10/17 05:15:20;;;;;;;34.50;22.25;;;;;;;9.33;67.11;100685.78;4972816;28;96894;-83
2021/10/17 05:17:46;;;;;;;38.45;22.52;;;;;;;9.27;67.14;100672.81;4962793;28;97013;-83
2021/10/17 05:20:12;;;;;;;32.25;21.48;;;;;;;9.39;67.29;100688.25;4969490;28;101133;-83
2021/10/17 05:22:37;;;;;;;35.83;20.60;;;;;;;9.34;67.11;100689.25;4972579;28;98048;-84
2021/10/17 05:25:04;;;;;;;30.58;20.02;;;;;;;9.26;67.46;100692.91;4964049;28;97129;-83
2021/10/17 05:27:30;;;;;;;34.95;20.90;;;;;;;9.28;67.13;100685.91;4953382;28;97436;-83
2021/10/17 05:29:56;;;;;;;31.55;19.63;;;;;;;9.52;65.92;100683.59;4941019;28;101101;-84
2021/10/17 05:32:23;;;;;;;28.63;19.13;;;;;;;9.39;66.52;100695.25;4980316;28;101662;-83
2021/10/17 05:34:50;;;;;;;30.25;19.88;;;;;;;9.52;66.29;100696.69;4953347;28;96809;-83
2021/10/17 05:37:16;;;;;;;31.85;18.45;;;;;;;9.49;66.24;100695.00;4972866;28;96670;-84
2021/10/17 05:39:41;;;;;;;26.52;18.58;;;;;;;9.43;66.17;100702.16;4972755;28;101449;-83
2021/10/17 05:42:07;;;;;;;29.70;19.38;;;;;;;9.43;65.97;100692.53;4990610;28;100906;-83
2021/10/17 05:44:33;;;;;;;33.28;19.33;;;;;;;9.45;66.27;100705.59;4957190;28;96866;-83
2021/10/17 05:46:59;;;;;;;27.95;18.58;;;;;;;9.36;65.62;100700.56;4938713;28;96969;-83
2021/10/17 05:49:24;;;;;;;29.35;19.13;;;;;;;9.27;66.28;100706.88;4969617;28;101359;-84
2021/10/17 05:51:50;;;;;;;29.70;18.55;;;;;;;9.44;65.62;100714.34;4935483;28;101857;-82
2021/10/17 05:54:16;;;;;;;24.60;18.02;;;;;;;9.48;65.49;100700.28;4952170;28;97078;-83
2021/10/17 05:56:43;;;;;;;31.08;18.98;;;;;;;9.46;65.44;100704.72;4926847;28;96780;-82
2021/10/17 05:59:09;;;;;;;29.55;18.85;;;;;;;9.44;65.94;100704.72;4953977;28;100273;-82
2021/10/17 06:01:36;;;;;;;30.45;17.70;;;;;;;9.36;66.20;100703.19;4938791;28;101861;-83
2021/10/17 06:04:07;;;;;;;26.75;18.05;;;;;;;9.36;66.63;100701.41;4972661;28;96732;-84
2021/10/17 06:06:52;;;;;;;26.02;17.65;;;;;;;9.47;66.41;100698.56;4983132;28;97268;-84
2021/10/17 06:09:17;;;;;;;28.42;17.13;;;;;;;9.60;66.05;100696.50;4970570;28;101320;-83
2021/10/17 06:11:43;;;;;;;25.73;17.60;;;;;;;9.74;64.02;100697.91;4939569;28;100091;-82
2021/10/17 06:14:10;;;;;;;29.58;17.05;;;;;;;9.77;63.96;100701.34;4924297;28;96790;-84
2021/10/17 06:16:36;;;;;;;27.73;17.50;;;;;;;9.61;64.67;100696.47;4955122;28;96864;-83
2021/10/17 06:19:01;;;;;;;23.95;16.23;;;;;;;9.68;64.00;100702.41;4934836;28;101598;-83
2021/10/17 06:21:35;;;;;;;28.48;16.90;;;;;;;9.62;64.28;100695.56;4979339;28;101862;-82
2021/10/17 06:24:02;;;;;;;28.45;17.48;;;;;;;9.64;63.98;100706.88;4951039;28;97315;-83
2021/10/17 06:26:28;;;;;;;25.27;16.77;;;;;;;9.62;64.25;100706.03;4955563;28;97563;-84
2021/10/17 06:28:54;;;;;;;25.10;17.85;;;;;;;9.57;64.90;100705.31;4959309;28;100437;-85
2021/10/17 06:31:20;;;;;;;25.65;16.20;;;;;;;9.65;64.08;100702.50;4953520;28;100549;-84
2021/10/17 06:33:46;;;;;;;28.88;17.50;;;;;;;9.57;64.28;100714.91;4945074;28;97217;-82
2021/10/17 06:36:12;;;;;;;21.77;16.48;;;;;;;9.54;64.65;100721.13;4947655;28;97394;-82
2021/10/17 06:38:37;;;;;;;24.75;16.85;;;;;;;9.62;65.04;100724.41;4926847;28;101528;-83
2021/10/17 06:41:03;;;;;;;23.73;15.82;;;;;;;9.65;65.21;100719.09;4992849;28;98340;-82
2021/10/17 06:43:31;;;;;;;24.70;16.35;;;;;;;9.78;64.49;100717.03;4961026;28;96740;-83
2021/10/17 06:46:11;;;;;;;26.35;16.70;;;;;;;9.87;63.16;100706.31;4971000;28;97425;-83
2021/10/17 06:48:38;;;;;;;26.40;17.45;;;;;;;9.90;63.35;100715.88;4970320;28;100633;-83
2021/10/17 06:51:04;;;;;;;25.45;16.58;;;;;;;9.95;63.45;100724.50;4929979;28;100872;-83
2021/10/17 06:53:29;;;;;;;19.05;15.15;;;;;;;9.92;63.09;100724.56;4930604;28;96969;-82
2021/10/17 06:55:55;;;;;;;19.48;13.90;;;;;;;9.93;63.34;100718.41;4933083;28;96943;-85
2021/10/17 06:58:24;;;;;;;25.40;15.93;;;;;;;9.96;63.14;100729.69;4910794;28;102048;-83
2021/10/17 07:00:49;;;;;;;21.10;14.95;;;;;;;10.05;62.79;100718.09;4966878;28;101632;-82
2021/10/17 07:03:15;;;;;;;25.17;15.95;;;;;;;10.09;62.60;100724.97;4939100;28;96920;-83
2021/10/17 07:06:07;;;;;;;21.92;15.27;;;;;;;9.98;63.17;100732.28;4962744;28;97453;-83
2021/10/17 07:08:34;;;;;;;20.33;15.38;;;;;;;10.17;62.49;100733.53;4934993;28;101930;-83
2021/10/17 07:11:00;;;;;;;21.58;14.10;;;;;;;10.17;62.23;100736.16;4964378;28;101794;-84
2021/10/17 07:13:58;;;;;;;21.85;14.57;;;;;;;10.17;61.64;100736.16;4950868;28;96979;-84
2021/10/17 07:16:27;;;;;;;20.10;14.23;;;;;;;10.19;61.78;100738.75;4958867;28;97540;-82
2021/10/17 07:18:53;;;;;;;21.38;14.00;;;;;;;10.21;62.06;100739.56;4968567;28;101000;-84
2021/10/17 07:21:18;;;;;;;20.10;14.13;;;;;;;10.35;62.32;100734.84;4953437;28;100004;-82
2021/10/17 07:23:46;;;;;;;22.23;12.88;;;;;;;10.33;61.70;100733.19;4922442;28;97185;-83
2021/10/17 07:26:12;;;;;;;21.65;13.52;;;;;;;10.48;61.66;100739.78;4973585;28;97306;-83
2021/10/17 07:28:37;;;;;;;18.13;14.23;;;;;;;10.38;61.59;100740.03;4981240;28;101467;-85
2021/10/17 07:31:05;;;;;;;25.92;15.13;;;;;;;10.49;60.92;100734.47;4970804;28;102485;-83
2021/10/17 07:33:48;;;;;;;18.98;14.13;;;;;;;10.73;59.77;100735.56;4970401;28;96881;-83
2021/10/17 07:36:14;;;;;;;16.85;13.98;;;;;;;10.60;59.95;100726.31;4973663;28;97440;-84
2021/10/17 07:38:47;;;;;;;16.15;12.75;;;;;;;10.70;59.65;100734.78;4954435;28;101918;-84
2021/10/17 07:41:12;;;;;;;18.63;13.00;;;;;;;10.74;59.91;100744.31;4942588;28;100456;-83
2021/10/17 07:43:38;;;;;;;14.57;12.88;;;;;;;10.81;59.89;100732.72;4973472;28;96796;-84
2021/10/17 07:46:04;;;;;;;18.05;13.60;;;;;;;10.89;59.67;100730.75;4933100;28;96789;-85
2021/10/17 07:48:31;;;;;;;16.40;12.52;;;;;;;10.99;59.05;100728.69;4940303;28;101082;-84
2021/10/17 07:50:57;;;;;;;19.30;13.13;;;;;;;10.87;59.38;100722.88;4943693;28;101287;-84
2021/10/17 07:53:27;;;;;;;17.48;13.00;;;;;;;10.97;59.34;100720.88;4956542;28;97136;-84
2021/10/17 07:55:53;;;;;;;18.25;12.50;;;;;;;11.10;59.84;100735.34;4951339;28;97028;-84
2021/10/17 07:58:21;;;;;;;16.13;12.88;;;;;;;11.14;59.34;100732.63;4971834;28;101451;-84
2021/10/17 08:00:53;;;;;;;20.38;12.43;;;;;;;11.23;58.70;100738.50;4967437;28;100438;-84
2021/10/17 08:03:30;;;;;;;13.68;11.60;;;;;;;11.24;57.93;100734.09;4980390;28;96925;-86
2021/10/17 08:06:22;;;;;;;16.67;12.23;;;;;;;11.33;57.29;100731.19;4957147;28;97489;-84
2021/10/17 08:08:48;;;;;;;17.20;13.68;;;;;;;11.25;57.73;100733.19;4968532;28;101208;-83
2021/10/17 08:11:16;;;;;;;17.90;12.48;;;;;;;11.28;57.37;100731.31;4946325;28;101357;-84
2021/10/17 08:13:45;;;;;;;17.35;11.98;;;;;;;11.29;57.33;100735.69;4936812;28;97430;-86
2021/10/17 08:16:13;;;;;;;13.88;11.82;;;;;;;11.36;56.59;100730.22;4969666;28;96766;-87
2021/10/17 08:18:46;;;;;;;15.02;11.88;;;;;;;11.37;56.83;100739.81;4969140;28;100403;-85
2021/10/17 08:21:12;;;;;;;15.05;10.48;;;;;;;11.41;56.74;100738.84;4938246;28;100965;-87
2021/10/17 08:23:45;;;;;;;16.52;10.43;;;;;;;11.47;56.54;100741.28;4951973;28;97010;-85
2021/10/17 08:26:11;;;;;;;15.38;11.63;;;;;;;11.35;56.27;100718.88;4953686;28;97241;-86
2021/10/17 08:28:37;;;;;;;21.50;13.35;;;;;;;11.52;56.55;100732.34;4969617;28;101271;-85
2021/10/17 08:31:12;;;;;;;19.15;12.45;;;;;;;11.60;54.87;100728.59;4948561;28;99911;-81
2021/10/17 08:33:40;;;;;;;12.07;10.82;;;;;;;11.69;54.83;100731.81;4935572;28;96991;-80
2021/10/17 08:36:07;;;;;;;18.13;13.60;;;;;;;11.75;55.46;100733.34;4964021;28;97525;-82
2021/10/17 08:38:34;;;;;;;14.80;11.32;;;;;;;11.87;54.66;100734.75;4949729;28;102074;-78
2021/10/17 08:41:06;;;;;;;13.63;11.32;;;;;;;11.93;53.84;100729.31;4955139;28;102249;-80
2021/10/17 08:43:44;;;;;;;15.00;10.93;;;;;;;11.85;54.38;100726.06;4935490;28;97549;-79
2021/10/17 08:46:33;;;;;;;17.50;12.13;;;;;;;12.03;53.86;100730.72;4939066;28;97060;-84
2021/10/17 08:49:05;;;;;;;15.02;11.43;;;;;;;11.96;53.66;100723.97;4950223;28;101886;-82
2021/10/17 08:51:34;;;;;;;14.85;11.10;;;;;;;12.14;52.65;100733.84;4934723;28;101869;-83
2021/10/17 08:54:04;;;;;;;15.00;11.40;;;;;;;12.06;52.88;100722.72;4934000;28;97001;-81
2021/10/17 08:56:32;;;;;;;15.63;11.30;;;;;;;12.18;52.62;100731.97;4917739;28;97141;-85
2021/10/17 08:59:00;;;;;;;19.27;11.85;;;;;;;12.14;52.38;100725.97;4934409;28;101816;-85
2021/10/17 09:01:38;;;;;;;11.82;10.60;;;;;;;12.18;52.54;100729.34;4938072;28;101337;-85
2021/10/17 09:04:07;;;;;;;16.67;12.20;;;;;;;12.10;51.26;100724.38;4953349;28;97087;-84
2021/10/17 09:06:55;;;;;;;24.00;16.58;;;;;;;12.21;51.38;100726.59;4941702;28;98198;-87
2021/10/17 09:09:21;;;;;;;25.30;13.43;;;;;;;12.21;50.13;100729.25;4949165;28;100602;-86
2021/10/17 09:11:58;;;;;;;19.67;12.93;;;;;;;12.20;49.91;100728.38;4934041;28;102127;-85
2021/10/17 09:14:27;;;;;;;12.15;9.27;;;;;;;12.19;49.13;100731.09;4933931;28;96949;-81
2021/10/17 09:16:55;;;;;;;18.65;11.90;;;;;;;12.13;49.40;100726.00;4964916;28;96883;-81
2021/10/17 09:19:23;;;;;;;10.27;9.32;;;;;;;12.23;48.89;100722.16;4964453;28;98063;-80
2021/10/17 09:22:06;;;;;;;14.25;10.13;;;;;;;12.26;49.58;100726.47;4948351;28;97653;-80
2021/10/17 09:24:47;;;;;;;13.75;10.90;;;;;;;12.39;49.70;100731.25;4957877;28;97794;-80
2021/10/17 09:27:15;;;;;;;13.68;11.27;;;;;;;12.45;49.38;100732.81;4935216;28;97217;-80
2021/10/17 09:29:48;;;;;;;15.73;9.80;;;;;;;12.53;49.36;100732.53;4962372;28;97998;-80
2021/10/17 09:32:23;;;;;;;13.05;9.45;;;;;;;12.65;49.69;100739.97;4980873;28;97882;-82
2021/10/17 09:34:53;;;;;;;11.68;9.02;;;;;;;12.61;49.95;100736.59;4976696;28;97186;-81
2021/10/17 09:37:20;;;;;;;9.85;8.70;;;;;;;12.63;50.01;100737.41;4950148;28;97406;-81
2021/10/17 09:40:17;;;;;;;10.77;9.63;;;;;;;12.67;50.93;100732.88;4972038;28;97401;-82
2021/10/17 09:43:02;;;;;;;13.88;9.50;;;;;;;12.73;50.09;100729.19;4943171;28;97123;-82
2021/10/17 09:45:32;;;;;;;9.70;7.95;;;;;;;12.78;49.27;100736.00;4948417;28;97403;-81
2021/10/17 09:47:58;;;;;;;8.85;7.35;;;;;;;12.85;49.25;100737.47;4942315;28;97921;-81
2021/10/17 09:50:23;;;;;;;9.82;7.57;;;;;;;12.82;48.47;100721.78;4955157;28;98129;-82
2021/10/17 09:53:00;;;;;;;9.30;7.85;;;;;;;12.73;48.29;100731.81;4939269;28;97835;-81
2021/10/17 09:55:27;;;;;;;10.90;8.73;;;;;;;12.81;50.09;100717.44;4956633;28;97096;-82
2021/10/17 09:57:53;;;;;;;10.40;9.30;;;;;;;12.91;50.91;100731.13;4935466;28;97050;-84
2021/10/17 10:00:19;;;;;;;11.05;9.90;;;;;;;13.01;51.65;100726.38;4966939;28;101752;-82
2021/10/17 10:02:52;;;;;;;12.00;10.70;;;;;;;13.09;51.92;100734.88;4951465;28;97682;-82
2021/10/17 10:05:22;;;;;;;16.92;11.25;;;;;;;13.18;53.10;100725.72;4917905;28;97322;-80
2021/10/17 10:07:50;;;;;;;13.05;10.90;;;;;;;13.20;52.96;100719.47;4963092;28;97477;-80
2021/10/17 10:10:17;;;;;;;13.05;10.93;;;;;;;13.27;53.71;100728.91;4962113;28;98154;-81
2021/10/17 10:12:43;;;;;;;20.20;12.07;;;;;;;13.30;54.04;100726.16;4969569;28;98455;-80
2021/10/17 10:15:09;;;;;;;17.23;12.85;;;;;;;13.27;54.41;100720.16;4967302;28;97090;-82
2021/10/17 10:17:37;;;;;;;16.25;12.68;;;;;;;13.23;54.77;100723.78;4968703;28;96841;-84
2021/10/17 10:20:03;;;;;;;15.93;12.48;;;;;;;13.24;55.06;100721.09;4950593;28;98155;-84
2021/10/17 10:22:31;;;;;;;19.17;13.18;;;;;;;13.23;55.51;100722.00;4932249;28;101119;-80
2021/10/17 10:24:57;;;;;;;15.52;11.70;;;;;;;13.24;54.78;100726.38;4932218;28;97474;-80
2021/10/17 10:27:23;;;;;;;13.90;11.45;;;;;;;13.21;55.12;100726.50;4944048;28;96834;-79
2021/10/17 10:29:48;;;;;;;13.60;11.02;;;;;;;13.22;55.20;100720.28;4947657;28;98158;-79
2021/10/17 10:32:22;;;;;;;15.80;11.63;;;;;;;13.13;54.66;100712.75;4960802;28;97378;-81
2021/10/17 10:34:50;;;;;;;16.45;12.35;;;;;;;13.12;54.92;100713.66;4966256;28;96867;-81
2021/10/17 10:37:24;;;;;;;14.25;11.30;;;;;;;13.07;55.17;100720.88;4942908;28;97360;-80
2021/10/17 10:39:59;;;;;;;15.25;11.85;;;;;;;13.11;55.45;100714.56;4973830;28;99296;-80
2021/10/17 10:42:52;;;;;;;15.32;11.32;;;;;;;13.11;54.58;100722.47;4965908;28;98084;-80
2021/10/17 10:45:24;;;;;;;18.02;11.73;;;;;;;13.10;54.94;100721.63;4938008;28;97479;-81
2021/10/17 10:48:11;;;;;;;14.25;11.55;;;;;;;13.14;54.68;100723.22;4956358;28;96997;-80
2021/10/17 10:50:40;;;;;;;15.65;11.85;;;;;;;13.08;55.56;100720.81;4968741;28;101082;-80
2021/10/17 10:53:06;;;;;;;14.00;11.38;;;;;;;13.10;55.19;100720.75;4930716;28;101566;-81
2021/10/17 10:55:44;;;;;;;13.27;10.82;;;;;;;13.10;55.35;100724.25;4964811;28;97631;-80
2021/10/17 10:58:36;;;;;;;11.68;10.23;;;;;;;13.06;54.39;100720.03;4946317;28;96987;-80
2021/10/17 11:01:02;;;;;;;16.00;9.98;;;;;;;13.00;54.63;100716.75;4938350;28;98041;-82
2021/10/17 11:03:28;;;;;;;14.40;9.55;;;;;;;13.10;53.83;100726.88;4965157;28;100894;-80
2021/10/17 11:06:06;;;;;;;13.43;9.93;;;;;;;13.14;53.17;100714.44;4934321;28;97311;-81
2021/10/17 11:08:32;;;;;;;11.85;9.20;;;;;;;13.17;52.64;100719.59;4951606;28;97198;-81
2021/10/17 11:10:58;;;;;;;11.68;8.75;;;;;;;13.17;52.53;100714.31;4932324;28;101628;-81
2021/10/17 11:13:41;;;;;;;12.70;8.23;;;;;;;13.17;52.26;100719.59;4951865;28;101320;-81
2021/10/17 11:16:09;;;;;;;10.25;9.27;;;;;;;13.23;52.18;100729.06;4936113;28;96789;-81